Time;durP1;ratioP1;P1;durP2;ratioP2;P2;SDS_P1;SDS_P2;PMS_P1;PMS_P2;Temp;Humidity;BMP_temperature;BMP_pressure;BME280_temperature;BME280_humidity;BME280_pressure;Samples;Min_cycle;Max_cycle;Signal;HPM_P1;HPM_P2
2023/12/23 00:01:00;;;;;;;4.38;0.55;;;8.70;99.90;;;;;;5113423;28;20028;-65
2023/12/23 00:03:26;;;;;;;4.55;0.80;;;8.80;99.90;;;;;;5113621;28;20028;-67
2023/12/23 00:05:53;;;;;;;6.35;0.60;;;8.70;99.90;;;;;;5113705;28;20028;-66
2023/12/23 00:08:18;;;;;;;3.30;0.60;;;8.80;99.90;;;;;;5113704;28;20049;-67
2023/12/23 00:10:44;;;;;;;4.85;0.70;;;8.70;99.90;;;;;;5113630;28;20031;-65
2023/12/23 00:13:10;;;;;;;5.55;0.57;;;8.70;99.90;;;;;;5113596;28;20024;-66
2023/12/23 00:15:35;;;;;;;1.40;0.43;;;8.70;99.90;;;;;;5113572;28;20024;-66
2023/12/23 00:18:01;;;;;;;3.63;0.65;;;8.70;99.90;;;;;;5112383;28;20456;-66
2023/12/23 00:20:27;;;;;;;6.63;1.02;;;8.70;99.90;;;;;;5113243;28;20028;-65
2023/12/23 00:22:52;;;;;;;4.80;1.00;;;8.70;99.90;;;;;;5113414;28;20032;-66
2023/12/23 00:25:18;;;;;;;5.47;0.70;;;8.70;99.90;;;;;;5113424;28;20050;-66
2023/12/23 00:27:43;;;;;;;3.05;0.73;;;8.60;99.90;;;;;;5113282;28;20032;-66
2023/12/23 00:30:12;;;;;;;7.25;1.20;;;8.60;99.90;;;;;;5113045;28;20031;-65
2023/12/23 00:32:39;;;;;;;4.93;0.57;;;8.60;99.90;;;;;;5112189;28;20024;-66
2023/12/23 00:35:06;;;;;;;4.75;0.70;;;8.60;99.90;;;;;;5113175;28;20039;-66
2023/12/23 00:37:32;;;;;;;2.92;0.65;;;8.60;99.90;;;;;;5113131;28;20028;-66
2023/12/23 00:39:57;;;;;;;2.88;0.40;;;8.60;99.90;;;;;;5111992;28;20024;-65
2023/12/23 00:42:23;;;;;;;3.33;0.70;;;8.60;99.90;;;;;;5113011;28;20024;-66
2023/12/23 00:44:49;;;;;;;4.88;0.57;;;8.60;99.90;;;;;;5112904;28;20385;-66
2023/12/23 00:47:14;;;;;;;3.65;0.65;;;8.50;99.90;;;;;;5112959;28;20031;-66
2023/12/23 00:49:40;;;;;;;5.63;0.93;;;8.50;99.90;;;;;;5112761;28;20005;-66
2023/12/23 00:52:06;;;;;;;4.15;0.70;;;8.60;99.90;;;;;;5111901;28;20036;-66
2023/12/23 00:54:31;;;;;;;3.88;0.55;;;8.60;99.90;;;;;;5112701;28;20059;-66
2023/12/23 00:56:57;;;;;;;3.38;0.57;;;8.60;99.90;;;;;;5112740;28;20024;-66
2023/12/23 00:59:23;;;;;;;10.98;1.00;;;8.60;99.90;;;;;;5112769;28;20024;-66
2023/12/23 01:01:48;;;;;;;3.88;0.60;;;8.60;99.90;;;;;;5112440;28;20036;-65
2023/12/23 01:04:14;;;;;;;5.05;0.77;;;8.60;99.90;;;;;;5112721;28;20024;-66
2023/12/23 01:06:40;;;;;;;0.80;0.32;;;8.60;99.90;;;;;;5112700;28;20021;-66
2023/12/23 01:09:05;;;;;;;5.22;0.85;;;8.60;99.90;;;;;;5112665;28;20032;-66
2023/12/23 01:11:31;;;;;;;4.22;0.40;;;8.60;99.90;;;;;;5112711;28;20035;-67
2023/12/23 01:13:56;;;;;;;5.03;1.52;;;8.60;99.90;;;;;;5112615;28;20028;-65
2023/12/23 01:16:22;;;;;;;5.45;1.42;;;8.60;99.90;;;;;;5112556;28;20032;-66
2023/12/23 01:18:48;;;;;;;3.40;0.70;;;8.60;99.90;;;;;;5112516;28;20028;-65
2023/12/23 01:21:14;;;;;;;6.97;0.80;;;8.60;99.90;;;;;;5112387;28;20024;-66
2023/12/23 01:23:40;;;;;;;6.60;0.90;;;8.60;99.90;;;;;;5112577;28;20021;-66
2023/12/23 01:26:05;;;;;;;5.82;0.95;;;8.60;99.90;;;;;;5112446;28;20055;-66
2023/12/23 01:28:31;;;;;;;2.90;0.50;;;8.50;99.90;;;;;;5112378;28;20024;-66
2023/12/23 01:30:57;;;;;;;1.33;0.32;;;8.50;99.90;;;;;;5112194;28;20055;-66
2023/12/23 01:33:22;;;;;;;1.92;0.60;;;8.60;99.90;;;;;;5112381;28;20024;-66
2023/12/23 01:35:48;;;;;;;1.85;0.60;;;8.50;99.90;;;;;;5112373;28;20089;-67
2023/12/23 01:38:13;;;;;;;6.30;0.60;;;8.50;99.90;;;;;;5112488;28;20032;-66
2023/12/23 01:40:40;;;;;;;5.05;0.88;;;8.50;99.90;;;;;;5112276;28;20035;-66
2023/12/23 01:43:05;;;;;;;4.68;1.13;;;8.50;99.90;;;;;;5112401;28;20044;-66
2023/12/23 01:45:31;;;;;;;5.18;0.85;;;8.50;99.90;;;;;;5112301;28;20028;-66
2023/12/23 01:47:57;;;;;;;2.65;1.00;;;8.60;99.90;;;;;;5112460;28;20047;-66
2023/12/23 01:50:25;;;;;;;4.25;1.00;;;8.50;99.90;;;;;;5112258;28;20038;-67
2023/12/23 01:52:53;;;;;;;5.00;0.98;;;8.60;99.90;;;;;;5112401;28;20102;-66
2023/12/23 01:55:19;;;;;;;4.75;1.10;;;8.60;99.90;;;;;;5112059;28;20048;-66
2023/12/23 01:57:45;;;;;;;3.65;1.00;;;8.60;99.90;;;;;;5112083;28;20035;-66
2023/12/23 02:00:11;;;;;;;4.43;0.90;;;8.60;99.90;;;;;;5112563;28;20032;-66
2023/12/23 02:02:38;;;;;;;3.72;0.93;;;8.60;99.90;;;;;;5116112;28;20583;-66
2023/12/23 02:05:06;;;;;;;5.43;1.10;;;8.60;99.90;;;;;;5115996;28;20024;-66
2023/12/23 02:07:33;;;;;;;4.80;1.42;;;8.60;99.90;;;;;;5116045;28;20354;-66
2023/12/23 02:09:59;;;;;;;3.30;1.20;;;8.60;99.90;;;;;;5115913;28;20020;-66
2023/12/23 02:12:29;;;;;;;3.50;0.95;;;8.60;99.90;;;;;;5115827;28;20047;-66
2023/12/23 02:15:08;;;;;;;5.03;1.40;;;8.60;99.90;;;;;;5115928;28;20008;-66
2023/12/23 02:17:34;;;;;;;8.68;1.67;;;8.60;99.90;;;;;;5115931;28;20066;-66
2023/12/23 02:20:00;;;;;;;4.72;1.40;;;8.70;99.90;;;;;;5115675;28;20031;-65
2023/12/23 02:22:25;;;;;;;6.97;1.80;;;8.70;99.90;;;;;;5115667;28;20050;-66
2023/12/23 02:24:51;;;;;;;7.57;1.70;;;8.70;99.90;;;;;;5115624;28;20044;-66
2023/12/23 02:27:21;;;;;;;7.00;1.75;;;8.70;99.90;;;;;;5115442;28;20024;-65
2023/12/23 02:29:47;;;;;;;4.20;1.77;;;8.80;99.90;;;;;;5115471;28;20435;-65
2023/12/23 02:32:13;;;;;;;5.63;1.55;;;8.70;99.90;;;;;;5115246;28;20024;-65
2023/12/23 02:34:41;;;;;;;5.53;1.98;;;8.80;99.90;;;;;;5115509;28;20032;-66
2023/12/23 02:37:06;;;;;;;6.18;1.73;;;8.80;99.90;;;;;;5115517;28;20024;-65
2023/12/23 02:39:32;;;;;;;5.97;2.50;;;8.80;99.90;;;;;;5115287;28;20096;-66
2023/12/23 02:41:58;;;;;;;4.43;1.42;;;8.90;99.90;;;;;;5115233;28;20028;-65
2023/12/23 02:44:23;;;;;;;9.73;1.75;;;9.00;99.90;;;;;;5115272;28;20032;-67
2023/12/23 02:46:49;;;;;;;8.43;2.03;;;9.00;99.90;;;;;;5115248;28;20054;-67
2023/12/23 02:49:14;;;;;;;5.65;1.60;;;9.10;99.90;;;;;;5115171;28;20073;-66
2023/12/23 02:51:40;;;;;;;12.38;2.33;;;9.20;99.90;;;;;;5115143;28;20024;-66
2023/12/23 02:54:06;;;;;;;7.78;2.22;;;9.40;99.90;;;;;;5114848;28;20063;-66
2023/12/23 02:56:31;;;;;;;8.38;1.67;;;9.50;99.90;;;;;;5115103;28;20032;-67
2023/12/23 02:58:57;;;;;;;4.28;1.52;;;9.50;99.90;;;;;;5114029;28;20121;-67
2023/12/23 03:01:22;;;;;;;4.63;1.73;;;9.60;99.90;;;;;;5114673;28;20028;-68
2023/12/23 03:03:48;;;;;;;3.40;1.50;;;9.60;99.90;;;;;;5114951;28;20200;-66
2023/12/23 03:06:14;;;;;;;6.45;1.30;;;9.70;99.90;;;;;;5113838;28;20043;-66
2023/12/23 03:08:40;;;;;;;5.70;1.80;;;9.70;99.90;;;;;;5114782;28;20447;-67
2023/12/23 03:11:06;;;;;;;8.00;1.35;;;9.80;99.90;;;;;;5114697;28;20440;-66
2023/12/23 03:13:32;;;;;;;6.35;1.20;;;9.80;99.90;;;;;;5114778;28;20024;-66
2023/12/23 03:15:57;;;;;;;8.55;1.90;;;9.70;99.90;;;;;;5114677;28;20028;-66
2023/12/23 03:18:23;;;;;;;2.63;1.17;;;9.70;99.90;;;;;;5114578;28;20028;-67
2023/12/23 03:20:50;;;;;;;8.73;1.73;;;9.60;99.90;;;;;;5114371;28;20043;-66
2023/12/23 03:23:16;;;;;;;4.82;1.10;;;9.60;99.90;;;;;;5113443;28;20016;-66
2023/12/23 03:25:41;;;;;;;7.05;1.65;;;9.60;99.90;;;;;;5114432;28;20096;-68
2023/12/23 03:28:07;;;;;;;8.77;1.73;;;9.60;99.90;;;;;;5113298;28;20028;-66
2023/12/23 03:30:33;;;;;;;5.00;1.20;;;9.60;99.90;;;;;;5114128;28;20028;-67
2023/12/23 03:32:58;;;;;;;8.48;1.52;;;9.60;99.90;;;;;;5114299;28;20058;-67
2023/12/23 03:35:24;;;;;;;6.60;1.55;;;9.60;99.90;;;;;;5114307;28;20063;-68
2023/12/23 03:37:49;;;;;;;6.25;0.90;;;9.60;99.90;;;;;;5114189;28;20092;-66
2023/12/23 03:40:15;;;;;;;6.88;1.40;;;9.70;99.90;;;;;;5114014;28;20024;-67
2023/12/23 03:42:41;;;;;;;4.93;1.10;;;9.70;99.90;;;;;;5114136;28;20028;-67
2023/12/23 03:45:07;;;;;;;8.40;1.35;;;9.70;99.90;;;;;;5114144;28;20020;-66
2023/12/23 03:47:34;;;;;;;9.55;1.92;;;9.70;99.90;;;;;;5114049;28;20019;-68
2023/12/23 03:50:00;;;;;;;4.88;1.27;;;9.80;99.90;;;;;;5114043;28;20024;-66
2023/12/23 03:52:25;;;;;;;3.72;1.40;;;9.80;99.90;;;;;;5112959;28;20036;-67
2023/12/23 03:54:51;;;;;;;3.72;1.02;;;9.90;99.90;;;;;;5112532;28;20108;-67
2023/12/23 03:57:16;;;;;;;8.73;1.30;;;9.90;99.90;;;;;;5113761;28;20036;-66
2023/12/23 03:59:42;;;;;;;5.57;1.17;;;9.90;99.90;;;;;;5113694;28;20079;-67
2023/12/23 04:02:08;;;;;;;7.05;1.48;;;10.00;99.90;;;;;;5113537;28;20028;-68
2023/12/23 04:04:37;;;;;;;3.83;1.20;;;10.00;99.90;;;;;;5112759;28;20059;-66
2023/12/23 04:07:03;;;;;;;6.55;1.45;;;10.10;99.90;;;;;;5113504;28;20012;-69
2023/12/23 04:09:29;;;;;;;6.45;1.42;;;10.10;99.90;;;;;;5112630;28;20039;-67
2023/12/23 04:11:55;;;;;;;7.93;2.00;;;10.10;99.90;;;;;;5113664;28;20046;-70
2023/12/23 04:14:21;;;;;;;5.78;1.60;;;10.20;99.90;;;;;;5112512;28;20088;-68
2023/12/23 04:16:47;;;;;;;4.38;1.45;;;10.20;99.90;;;;;;5113480;28;20462;-68
2023/12/23 04:19:13;;;;;;;8.77;1.25;;;10.20;99.90;;;;;;5113456;28;20032;-67
2023/12/23 04:21:38;;;;;;;6.30;1.58;;;10.30;99.90;;;;;;5113232;28;20279;-66
2023/12/23 04:24:04;;;;;;;4.82;1.10;;;10.20;99.90;;;;;;5112885;28;20024;-68
2023/12/23 04:26:31;;;;;;;5.20;1.48;;;10.20;99.90;;;;;;5112245;28;20542;-67
2023/12/23 04:28:58;;;;;;;8.10;1.70;;;10.20;99.90;;;;;;5113266;28;20044;-68
2023/12/23 04:31:23;;;;;;;4.90;1.25;;;10.20;99.90;;;;;;5113041;28;20043;-67
2023/12/23 04:33:49;;;;;;;2.50;0.80;;;10.30;99.90;;;;;;5112246;28;20032;-65
2023/12/23 04:36:17;;;;;;;5.78;1.30;;;10.20;99.90;;;;;;5113093;28;20036;-67
2023/12/23 04:38:43;;;;;;;6.97;1.40;;;10.30;99.90;;;;;;5112181;28;20099;-67
2023/12/23 04:41:08;;;;;;;12.70;2.13;;;10.30;99.90;;;;;;5113002;28;20020;-68
2023/12/23 04:43:34;;;;;;;4.72;1.17;;;10.30;99.90;;;;;;5112995;28;20030;-67
2023/12/23 04:46:00;;;;;;;4.53;1.35;;;10.40;99.90;;;;;;5113050;28;20024;-68
2023/12/23 04:48:26;;;;;;;7.80;1.33;;;10.30;99.90;;;;;;5112898;28;20408;-68
2023/12/23 04:50:52;;;;;;;2.75;0.73;;;10.30;99.90;;;;;;5112906;28;20020;-66
2023/12/23 04:53:21;;;;;;;5.43;0.93;;;10.30;99.90;;;;;;5112964;28;20095;-68
2023/12/23 04:55:46;;;;;;;11.38;1.80;;;10.30;99.90;;;;;;5111857;28;20036;-67
2023/12/23 04:58:12;;;;;;;4.90;0.95;;;10.30;99.90;;;;;;5111780;28;20048;-67
2023/12/23 05:00:37;;;;;;;5.20;1.25;;;10.40;99.90;;;;;;5112539;28;20036;-66
2023/12/23 05:03:03;;;;;;;9.02;1.88;;;10.40;99.90;;;;;;5112798;28;20020;-68
2023/12/23 05:05:29;;;;;;;10.15;1.48;;;10.40;99.90;;;;;;5112685;28;20020;-67
2023/12/23 05:07:54;;;;;;;7.25;1.30;;;10.40;99.90;;;;;;5112696;28;20028;-66
2023/12/23 05:10:20;;;;;;;5.85;1.40;;;10.40;99.90;;;;;;5111721;28;20056;-68
2023/12/23 05:12:46;;;;;;;8.73;1.50;;;10.40;99.90;;;;;;5112613;28;20083;-67
2023/12/23 05:15:11;;;;;;;6.43;1.30;;;10.40;99.90;;;;;;5112632;28;20152;-69
2023/12/23 05:17:37;;;;;;;6.63;1.48;;;10.40;99.90;;;;;;5112528;28;20043;-67
2023/12/23 05:20:03;;;;;;;5.75;1.38;;;10.50;99.90;;;;;;5111429;28;20039;-66
2023/12/23 05:22:28;;;;;;;8.02;1.27;;;10.50;99.90;;;;;;5111686;28;20055;-69
2023/12/23 05:24:55;;;;;;;6.10;1.20;;;10.50;99.90;;;;;;5112574;28;20029;-67
2023/12/23 05:27:20;;;;;;;6.55;1.38;;;10.50;99.90;;;;;;5112545;28;20035;-67
2023/12/23 05:29:46;;;;;;;7.57;1.55;;;10.40;99.90;;;;;;5112433;28;20032;-66
2023/12/23 05:32:11;;;;;;;4.53;1.20;;;10.40;99.90;;;;;;5112263;28;20032;-66
2023/12/23 05:34:37;;;;;;;7.43;2.00;;;10.40;99.90;;;;;;5112384;28;20036;-68
2023/12/23 05:37:03;;;;;;;5.72;1.60;;;10.50;99.90;;;;;;5116318;28;20031;-66
2023/12/23 05:39:28;;;;;;;7.75;1.20;;;10.40;99.90;;;;;;5116452;28;20058;-65
2023/12/23 05:41:54;;;;;;;8.38;1.63;;;10.40;99.90;;;;;;5115440;28;20039;-69
2023/12/23 05:44:19;;;;;;;3.05;1.10;;;10.50;99.90;;;;;;5116441;28;20024;-68
2023/12/23 05:46:45;;;;;;;4.72;1.27;;;10.40;99.90;;;;;;5116427;28;20025;-67
2023/12/23 05:49:11;;;;;;;5.50;1.25;;;10.50;99.90;;;;;;5116222;28;20046;-68
2023/12/23 05:51:37;;;;;;;3.30;0.68;;;10.50;99.90;;;;;;5116374;28;20043;-67
2023/12/23 05:54:03;;;;;;;7.07;1.52;;;10.50;99.90;;;;;;5116082;28;20054;-66
2023/12/23 05:56:29;;;;;;;7.95;1.15;;;10.50;99.90;;;;;;5116149;28;20028;-68
2023/12/23 05:58:56;;;;;;;8.70;1.73;;;10.50;99.90;;;;;;5116123;28;20028;-69
2023/12/23 06:01:22;;;;;;;3.47;1.27;;;10.50;99.90;;;;;;5114863;28;20032;-65
2023/12/23 06:03:48;;;;;;;5.18;1.20;;;10.50;99.90;;;;;;5116086;28;20045;-68
2023/12/23 06:06:13;;;;;;;6.00;1.55;;;10.40;99.90;;;;;;5115976;28;20033;-68
2023/12/23 06:08:39;;;;;;;10.88;1.92;;;10.50;99.90;;;;;;5116038;28;20028;-68
2023/12/23 06:11:07;;;;;;;8.73;1.85;;;10.40;99.90;;;;;;5115843;28;20024;-67
2023/12/23 06:13:33;;;;;;;6.07;1.60;;;10.50;99.90;;;;;;5114887;28;20099;-67
2023/12/23 06:16:05;;;;;;;8.55;1.45;;;10.50;99.90;;;;;;5115775;28;20020;-66
2023/12/23 06:18:31;;;;;;;;;;;10.50;99.90;;;;;;5116175;28;20042;-66
2023/12/23 06:20:57;;;;;;;6.88;1.30;;;10.40;99.90;;;;;;5115466;28;19912;-70
2023/12/23 06:23:22;;;;;;;6.20;1.50;;;10.30;99.90;;;;;;5115726;28;20028;-66
2023/12/23 06:25:48;;;;;;;5.28;1.42;;;10.20;99.90;;;;;;5114565;28;20020;-66
2023/12/23 06:28:14;;;;;;;5.60;1.38;;;10.20;99.90;;;;;;5115528;28;20049;-66
2023/12/23 06:30:39;;;;;;;3.78;1.50;;;10.10;99.90;;;;;;5114199;28;20093;-67
2023/12/23 06:33:05;;;;;;;5.28;1.60;;;10.00;99.90;;;;;;5115541;28;20028;-66
2023/12/23 06:35:30;;;;;;;9.73;2.05;;;10.00;99.90;;;;;;5115398;28;20032;-66
2023/12/23 06:37:56;;;;;;;9.20;2.30;;;10.00;99.90;;;;;;5115221;28;20058;-67
2023/12/23 06:40:21;;;;;;;4.85;1.42;;;10.00;99.90;;;;;;5115145;28;20028;-67
2023/12/23 06:42:47;;;;;;;10.45;2.28;;;10.00;99.90;;;;;;5115255;28;20036;-69
2023/12/23 06:45:13;;;;;;;8.75;2.05;;;9.90;99.90;;;;;;5097206;28;20016;-67
2023/12/23 06:47:38;;;;;;;7.65;2.00;;;9.90;99.90;;;;;;5114614;28;20448;-66
2023/12/23 06:50:04;;;;;;;7.88;1.75;;;9.90;99.90;;;;;;5115098;28;20024;-66
2023/12/23 06:52:30;;;;;;;5.90;1.50;;;10.00;99.90;;;;;;5115164;28;20032;-69
2023/12/23 06:54:56;;;;;;;5.05;1.48;;;10.00;99.90;;;;;;5114862;28;20496;-68
2023/12/23 06:57:21;;;;;;;10.27;1.58;;;10.00;99.90;;;;;;5114958;28;20039;-67
2023/12/23 06:59:47;;;;;;;8.32;1.10;;;10.00;99.90;;;;;;5114761;28;20027;-67
2023/12/23 07:02:13;;;;;;;6.60;1.60;;;10.00;99.90;;;;;;5114529;28;20032;-66
2023/12/23 07:04:39;;;;;;;9.48;1.35;;;10.00;99.90;;;;;;5114850;28;20019;-67
2023/12/23 07:07:06;;;;;;;5.05;1.20;;;10.00;99.90;;;;;;5114771;28;20027;-68
2023/12/23 07:09:31;;;;;;;6.00;1.52;;;10.00;99.90;;;;;;5114720;28;20122;-68
2023/12/23 07:11:57;;;;;;;7.05;1.55;;;10.10;99.90;;;;;;5114667;28;20028;-71
2023/12/23 07:14:23;;;;;;;9.52;1.58;;;10.10;99.90;;;;;;5096325;28;20048;-67
2023/12/23 07:16:49;;;;;;;7.25;1.67;;;10.10;99.90;;;;;;5093841;28;20096;-67
2023/12/23 07:19:16;;;;;;;9.02;1.95;;;10.10;99.90;;;;;;5093735;28;20051;-70
2023/12/23 07:21:42;;;;;;;9.00;2.10;;;10.10;99.90;;;;;;5093648;28;20021;-67
2023/12/23 07:24:07;;;;;;;6.25;2.13;;;10.10;99.90;;;;;;5093061;28;20054;-66
2023/12/23 07:26:35;;;;;;;10.07;1.98;;;10.20;99.90;;;;;;5094135;28;20029;-69
2023/12/23 07:29:04;;;;;;;6.45;1.40;;;10.20;99.90;;;;;;5093942;28;20033;-71
2023/12/23 07:31:32;;;;;;;2.42;0.93;;;10.20;99.90;;;;;;5093813;28;20040;-66
2023/12/23 07:33:59;;;;;;;7.30;1.88;;;10.30;99.90;;;;;;5093029;28;20024;-69
2023/12/23 07:36:25;;;;;;;9.60;1.60;;;10.30;99.90;;;;;;5094001;28;20092;-69
2023/12/23 07:38:50;;;;;;;9.20;1.85;;;10.30;99.90;;;;;;5093790;28;20037;-67
2023/12/23 07:41:16;;;;;;;9.15;1.60;;;10.40;99.90;;;;;;5093745;28;20032;-67
2023/12/23 07:43:41;;;;;;;8.98;1.90;;;10.40;99.90;;;;;;5093634;28;20024;-67
2023/12/23 07:46:08;;;;;;;6.00;1.35;;;10.40;99.90;;;;;;5075898;28;20055;-67
2023/12/23 07:48:33;;;;;;;4.20;1.30;;;10.50;99.90;;;;;;5093688;28;20034;-68
2023/12/23 07:50:59;;;;;;;6.20;2.25;;;10.50;99.90;;;;;;5093660;28;20032;-65
2023/12/23 07:53:24;;;;;;;8.07;1.73;;;10.50;99.90;;;;;;5092377;28;20086;-69
2023/12/23 07:55:50;;;;;;;4.63;1.20;;;10.60;99.90;;;;;;5092525;28;20048;-65
2023/12/23 07:58:15;;;;;;;5.22;1.55;;;10.60;99.90;;;;;;5092590;28;20050;-66
2023/12/23 08:00:41;;;;;;;4.60;1.15;;;10.60;99.90;;;;;;5092104;28;20033;-66
2023/12/23 08:03:07;;;;;;;8.55;1.77;;;10.70;99.90;;;;;;5092477;28;20021;-68
2023/12/23 08:05:34;;;;;;;11.57;1.80;;;10.70;99.90;;;;;;5092430;28;20021;-67
2023/12/23 08:08:00;;;;;;;6.68;1.83;;;10.70;99.90;;;;;;5093250;28;20052;-67
2023/12/23 08:10:25;;;;;;;6.10;1.75;;;10.70;99.90;;;;;;5093230;28;20029;-67
2023/12/23 08:12:51;;;;;;;9.15;2.13;;;10.70;99.90;;;;;;5093100;28;20037;-69
2023/12/23 08:15:16;;;;;;;5.03;1.38;;;10.70;99.90;;;;;;5092143;28;20028;-67
2023/12/23 08:17:43;;;;;;;5.40;1.33;;;10.70;99.90;;;;;;5093145;28;20088;-65
2023/12/23 08:20:09;;;;;;;7.30;1.73;;;10.70;99.90;;;;;;5109917;28;20056;-70
2023/12/23 08:22:34;;;;;;;9.13;2.13;;;10.70;99.90;;;;;;5111304;28;20030;-68
2023/12/23 08:25:00;;;;;;;6.35;1.08;;;10.80;99.90;;;;;;5112199;28;20032;-66
2023/12/23 08:27:25;;;;;;;6.78;1.10;;;10.80;99.90;;;;;;5111878;28;20056;-66
2023/12/23 08:29:51;;;;;;;6.57;1.23;;;10.80;99.90;;;;;;5111904;28;20055;-66
2023/12/23 08:32:17;;;;;;;5.07;1.13;;;10.80;99.90;;;;;;5112810;28;20027;-66
2023/12/23 08:34:46;;;;;;;8.63;1.45;;;10.80;99.90;;;;;;5112962;28;20025;-67
2023/12/23 08:37:12;;;;;;;7.32;1.20;;;10.80;99.90;;;;;;5113138;28;20020;-66
2023/12/23 08:39:37;;;;;;;7.28;1.85;;;10.80;99.90;;;;;;5112013;28;20016;-66
2023/12/23 08:42:03;;;;;;;4.05;0.85;;;10.90;99.90;;;;;;5112867;28;20036;-66
2023/12/23 08:44:28;;;;;;;6.85;1.10;;;10.90;99.90;;;;;;5112938;28;20024;-66
2023/12/23 08:46:54;;;;;;;7.15;1.60;;;10.90;99.90;;;;;;5112960;28;20028;-66
2023/12/23 08:49:20;;;;;;;8.02;1.63;;;10.90;99.90;;;;;;5112867;28;20080;-69
2023/12/23 08:51:45;;;;;;;7.40;1.60;;;10.90;99.90;;;;;;5111906;28;20390;-68
2023/12/23 08:54:12;;;;;;;7.43;1.17;;;10.90;99.90;;;;;;5112711;28;20068;-66
2023/12/23 08:56:38;;;;;;;9.77;1.67;;;11.00;99.90;;;;;;5111735;28;20050;-66
2023/12/23 08:59:03;;;;;;;5.40;0.93;;;11.00;99.90;;;;;;5112755;28;20047;-65
2023/12/23 09:01:29;;;;;;;6.40;1.20;;;11.00;99.90;;;;;;5112472;28;20533;-70
2023/12/23 09:03:55;;;;;;;5.65;1.00;;;11.00;99.90;;;;;;5112586;28;20031;-66
2023/12/23 09:06:20;;;;;;;4.93;1.10;;;11.10;99.90;;;;;;5112727;28;20048;-67
2023/12/23 09:08:46;;;;;;;6.32;0.93;;;11.10;99.90;;;;;;5112532;28;20033;-68
2023/12/23 09:11:12;;;;;;;3.38;1.08;;;11.10;99.90;;;;;;5112740;28;20087;-68
2023/12/23 09:13:37;;;;;;;4.50;0.98;;;11.00;99.90;;;;;;5112676;28;20036;-68
2023/12/23 09:16:04;;;;;;;4.53;1.35;;;11.00;99.90;;;;;;5112657;28;20032;-68
2023/12/23 09:18:30;;;;;;;7.07;0.90;;;11.10;99.90;;;;;;5112542;28;20026;-67
2023/12/23 09:20:56;;;;;;;5.20;0.90;;;11.10;99.90;;;;;;5112388;28;20040;-65
2023/12/23 09:23:21;;;;;;;4.97;1.13;;;11.10;99.90;;;;;;5112542;28;20421;-66
2023/12/23 09:25:47;;;;;;;3.20;1.30;;;11.10;99.90;;;;;;5112409;28;20028;-67
2023/12/23 09:28:13;;;;;;;4.30;0.90;;;11.00;99.90;;;;;;5112445;28;20032;-65
2023/12/23 09:30:39;;;;;;;1.48;0.52;;;11.00;99.90;;;;;;5112308;28;20021;-67
2023/12/23 09:33:05;;;;;;;5.57;1.00;;;11.00;99.90;;;;;;5112318;28;20122;-66
2023/12/23 09:35:32;;;;;;;2.72;0.90;;;11.00;99.90;;;;;;5112299;28;20020;-67
2023/12/23 09:37:58;;;;;;;3.63;0.98;;;11.00;99.90;;;;;;5112338;28;20020;-66
2023/12/23 09:40:24;;;;;;;5.93;1.10;;;11.00;99.90;;;;;;5112143;28;20213;-68
2023/12/23 09:42:50;;;;;;;5.10;1.35;;;11.00;99.90;;;;;;5112274;28;20055;-69
2023/12/23 09:45:16;;;;;;;3.05;0.73;;;11.00;99.90;;;;;;5112262;28;20028;-67
2023/12/23 09:47:42;;;;;;;4.43;1.48;;;11.00;99.90;;;;;;5112297;28;20037;-69
2023/12/23 09:50:08;;;;;;;4.35;1.23;;;11.00;99.90;;;;;;5112264;28;20020;-66
2023/12/23 09:52:34;;;;;;;3.35;0.95;;;11.00;99.90;;;;;;5112335;28;20028;-66
2023/12/23 09:55:03;;;;;;;3.95;1.20;;;10.90;99.90;;;;;;5111775;28;20052;-67
2023/12/23 09:57:30;;;;;;;5.78;1.23;;;10.90;99.90;;;;;;5112155;28;20028;-69
2023/12/23 09:59:56;;;;;;;3.15;1.05;;;10.90;99.90;;;;;;5112097;28;20474;-68
2023/12/23 10:02:22;;;;;;;3.25;0.85;;;10.90;99.90;;;;;;5111911;28;20023;-67
2023/12/23 10:04:47;;;;;;;7.63;1.40;;;11.00;99.90;;;;;;5112097;28;20044;-65
2023/12/23 10:07:15;;;;;;;4.57;1.23;;;11.00;99.90;;;;;;5112068;28;20032;-68
2023/12/23 10:09:41;;;;;;;5.43;1.35;;;11.00;99.90;;;;;;5112050;28;20017;-69
2023/12/23 10:12:07;;;;;;;6.03;1.20;;;11.00;99.90;;;;;;5103672;28;20084;-69
2023/12/23 10:14:33;;;;;;;9.27;1.20;;;11.00;99.90;;;;;;5091501;28;20029;-66
2023/12/23 10:16:58;;;;;;;6.00;1.10;;;11.10;99.90;;;;;;5090302;28;20029;-66
2023/12/23 10:19:24;;;;;;;4.10;0.90;;;11.00;99.90;;;;;;5090735;28;20031;-65
2023/12/23 10:21:50;;;;;;;8.32;1.52;;;11.10;99.90;;;;;;5092365;28;20025;-66
2023/12/23 10:24:16;;;;;;;2.08;0.93;;;11.00;99.90;;;;;;5094835;28;20107;-67
2023/12/23 10:26:42;;;;;;;7.57;1.08;;;11.00;99.90;;;;;;5095277;28;20040;-67
2023/12/23 10:29:10;;;;;;;2.80;0.90;;;11.10;99.90;;;;;;5095274;28;20032;-65
2023/12/23 10:31:36;;;;;;;3.80;1.13;;;11.10;99.90;;;;;;5095150;28;20086;-65
2023/12/23 10:34:13;;;;;;;4.93;1.00;;;11.10;99.90;;;;;;5095196;28;20021;-68
2023/12/23 10:36:41;;;;;;;4.25;0.98;;;11.10;99.90;;;;;;5095036;28;20029;-67
2023/12/23 10:39:16;;;;;;;3.75;0.98;;;11.10;99.90;;;;;;5095103;28;20031;-70
2023/12/23 10:41:45;;;;;;;8.30;1.20;;;11.10;99.90;;;;;;5094891;28;20020;-65
2023/12/23 10:44:11;;;;;;;6.35;1.00;;;11.10;99.90;;;;;;5093885;28;20031;-66
2023/12/23 10:46:38;;;;;;;5.88;1.27;;;11.10;99.90;;;;;;5094970;28;20021;-68
2023/12/23 10:49:05;;;;;;;4.13;1.15;;;11.10;99.90;;;;;;5094789;28;20017;-67
2023/12/23 10:51:32;;;;;;;9.30;1.20;;;11.20;99.90;;;;;;5094829;28;20071;-66
2023/12/23 10:54:00;;;;;;;6.22;0.93;;;11.20;99.90;;;;;;5094645;28;20036;-67
2023/12/23 10:56:27;;;;;;;4.32;0.90;;;11.20;99.90;;;;;;5094719;28;20096;-66
2023/12/23 10:58:54;;;;;;;5.95;1.08;;;11.20;99.90;;;;;;5094522;28;20086;-66
2023/12/23 11:01:22;;;;;;;5.47;1.23;;;11.20;99.90;;;;;;5094457;28;20052;-67
2023/12/23 11:03:51;;;;;;;9.80;1.20;;;11.30;99.90;;;;;;5094531;28;20032;-65
2023/12/23 11:06:18;;;;;;;4.45;1.10;;;11.30;99.90;;;;;;5094525;28;20039;-67
2023/12/23 11:08:46;;;;;;;5.10;1.17;;;11.30;99.90;;;;;;5094495;28;20039;-65
2023/12/23 11:11:12;;;;;;;2.90;1.10;;;11.30;99.90;;;;;;5094473;28;20024;-66
2023/12/23 11:13:38;;;;;;;5.68;1.42;;;11.30;99.90;;;;;;5094441;28;20112;-68
2023/12/23 11:16:10;;;;;;;2.95;1.08;;;11.40;99.90;;;;;;5094330;28;20055;-66
2023/12/23 11:18:39;;;;;;;7.22;1.15;;;11.40;99.90;;;;;;5093251;28;20036;-66
2023/12/23 11:21:15;;;;;;;4.20;1.08;;;11.40;99.90;;;;;;5093083;28;20033;-67
2023/12/23 11:23:41;;;;;;;8.43;1.23;;;11.50;99.90;;;;;;5094153;28;20021;-69
2023/12/23 11:26:40;;;;;;;3.95;1.15;;;11.50;99.90;;;;;;5093196;28;20035;-68
2023/12/23 11:29:06;;;;;;;3.35;1.40;;;11.50;99.90;;;;;;5094174;28;20048;-67
2023/12/23 11:31:32;;;;;;;8.02;1.52;;;11.50;99.90;;;;;;5093914;28;20131;-68
2023/12/23 11:34:01;;;;;;;4.43;0.80;;;11.50;99.90;;;;;;5092895;28;20029;-66
2023/12/23 11:36:26;;;;;;;6.53;1.33;;;11.50;99.90;;;;;;5094016;28;20084;-70
2023/12/23 11:38:53;;;;;;;9.93;0.77;;;11.50;99.90;;;;;;5092863;28;20051;-66
2023/12/23 11:41:20;;;;;;;9.35;1.10;;;11.50;99.90;;;;;;5093730;28;20045;-66
2023/12/23 11:43:47;;;;;;;4.15;0.90;;;11.60;99.90;;;;;;5093708;28;20032;-68
2023/12/23 11:46:14;;;;;;;5.25;1.35;;;11.60;99.90;;;;;;5093687;28;20080;-67
2023/12/23 11:48:40;;;;;;;6.00;1.17;;;11.60;99.90;;;;;;5093640;28;20020;-67
2023/12/23 11:51:09;;;;;;;8.68;1.10;;;11.70;99.90;;;;;;5093677;28;20033;-66
2023/12/23 11:53:34;;;;;;;7.38;1.02;;;11.70;99.90;;;;;;5093535;28;20483;-67
2023/12/23 11:56:01;;;;;;;4.05;0.85;;;11.70;99.90;;;;;;5093605;28;20089;-70
2023/12/23 11:58:27;;;;;;;5.43;0.70;;;11.70;99.90;;;;;;5093600;28;20033;-66
2023/12/23 12:00:54;;;;;;;6.63;1.40;;;11.70;99.90;;;;;;5093241;28;20032;-66
2023/12/23 12:03:20;;;;;;;3.97;1.35;;;11.70;99.90;;;;;;5092445;28;20036;-69
2023/12/23 12:05:46;;;;;;;3.25;0.70;;;11.70;99.90;;;;;;5093338;28;20068;-66
2023/12/23 12:08:11;;;;;;;6.80;1.05;;;11.70;99.90;;;;;;5093280;28;20029;-67
2023/12/23 12:10:37;;;;;;;3.83;0.70;;;11.70;99.90;;;;;;5093253;28;20021;-66
2023/12/23 12:13:03;;;;;;;18.65;1.38;;;11.70;99.90;;;;;;5093433;28;20016;-65
2023/12/23 12:15:29;;;;;;;4.60;0.90;;;11.70;99.90;;;;;;5093204;28;20031;-66
2023/12/23 12:17:55;;;;;;;4.28;0.73;;;11.70;99.90;;;;;;5093199;28;20046;-67
2023/12/23 12:20:22;;;;;;;3.25;0.90;;;11.70;99.90;;;;;;5092869;28;20062;-69
2023/12/23 12:22:48;;;;;;;3.53;0.73;;;11.80;99.90;;;;;;5093065;28;20019;-69
2023/12/23 12:25:15;;;;;;;4.18;0.90;;;11.80;99.90;;;;;;5093015;28;20027;-67
2023/12/23 12:27:41;;;;;;;4.70;0.60;;;11.80;99.90;;;;;;5091888;28;20051;-65
2023/12/23 12:30:13;;;;;;;4.35;0.60;;;11.70;99.90;;;;;;5092802;28;20032;-67
2023/12/23 12:32:44;;;;;;;2.83;0.65;;;11.70;99.90;;;;;;5092963;28;20016;-67
2023/12/23 12:35:11;;;;;;;3.17;0.70;;;11.70;99.90;;;;;;5100603;28;20032;-66
2023/12/23 12:37:38;;;;;;;3.35;0.60;;;11.70;99.90;;;;;;5101575;28;20017;-66
2023/12/23 12:40:04;;;;;;;6.35;1.40;;;11.70;99.90;;;;;;5101438;28;20046;-67
2023/12/23 12:42:30;;;;;;;4.25;0.98;;;11.70;99.90;;;;;;5101596;28;20031;-66
2023/12/23 12:45:02;;;;;;;4.18;0.80;;;11.70;99.90;;;;;;5102991;28;20107;-67